Alpena, MI

6:05 PM EST on January 29, 2015 (GMT -0500)
Alpena County Regional | Change Station
CLOSE
Current Station
Airport
Location: Alpena,
Elevation: 689 ft
Nearby Weather Stations

Elev 689 ft 45.07 °N, 83.56 °W | Updated 11 minutes ago

Overcast
Overcast
30 °F
Feels Like 19 °F
N
16
Wind Variable Wind from NW
Gusts 26 mph

Today
High -- | Low -- °F
--% Chance of Precip.
Yesterday
High -- | Low -- °F
Precip. -- in
7:57 AM 5:37 PM
Waxing Gibbous, 78% visible
Pressure 29.87 in
Visibility 10.0 miles
Clouds Overcast 1400 ft
Windchill 19 °F
Dew Point 26 °F
Humidity 85%
Rainfall 0.43 in
Snow Depth Not available.
UV 0 out of 12
Pollen .10 out of 12
Air Quality Not available.
Flu Activity Not available.
METAR KAPN 292254Z AUTO 31014G23KT 10SM -FZRA OVC014 M01/M03 A2984 RMK AO2 UPB04E33FZRAB33 SLP114 P0001 I1000 T10111033

More Conditions Fewer Conditions

Pressure 29.87 in
Visibility 10.0 miles
Clouds Overcast 1400 ft
Windchill 19 °F
Dew Point 26 °F
Humidity 85%
Rainfall 0.43 in
Snow Depth Not available.
UV 0 out of 12
Pollen .10 out of 12
Air Quality Not available.
Flu Activity Not available.
METAR KAPN 292254Z AUTO 31014G23KT 10SM -FZRA OVC014 M01/M03 A2984 RMK AO2 UPB04E33FZRAB33 SLP114 P0001 I1000 T10111033

More Conditions Fewer Conditions

Nowcast | as of 6:00 PM EST on January 29, 2015

At 7 PM...cloudy. Chance of snow showers. Temperature 26. Northwest winds 16 mph with gusts to 35 mph. At 9 PM...cloudy. Chance of snow showers. Temperature 21. Northwest winds 18 mph with gusts to 35 mph. At 11 PM...cloudy. Chance of snow showers. Temperature 16. Northwest winds 18 mph with gusts to 35 mph. Wind chill zero. At 1 am...mostly cloudy. Patchy blowing snow. Chance of snow showers. Temperature 12. Northwest winds 18 mph with gusts to 35 mph. Wind chill 7 below.

×

10-Day Weather Forecast

Almanac

Astronomy

Jan. 29, 2015 Rise Set
Actual Time
Civil Twilight
Nautical Twilight
Astronomical Twilight
Moon
Length of Visible Light
Length of Day
Tomorrow will be .
, % of the Moon is Illuminated

Today's Extremes

State Highs State Lows

Community

WunderPhotos

Upload Photos

1,791,637 photos uploaded!

WunderBlogs® & News

Nearby

Air Quality

  Air Quality AQ Index Pollutant
Not available.

Snow Depth

Station Depth Elevation

Earthquake Activity

City Distance Mag. Time & Date
Minimum magnitude displayed is 2.5.

Coastal Water Temperatures

Place Temperature

Nearby Weather Stations